Wetterdaten: Woche 14.11.11 - 20.11.11 (KW46)
Datum Zeit Temp. A. Feuchte A. Luftdruck Regen Wind Richtung Taupunkt Windchill Windben
14.11.2011 00:00 -1,4 C 85 % 1033,1 hPa 0,0 l/m 0,1 km/h N -3,6 C -1,4 C 2,4 km/h
14.11.2011 01:00 -1,9 C 87 % 1033,0 hPa 0,0 l/m 0,0 km/h N -3,8 C -1,9 C 0,4 km/h
14.11.2011 02:00 -2,7 C 86 % 1032,6 hPa 0,0 l/m 0,0 km/h N -4,7 C -2,7 C 0,0 km/h
14.11.2011 03:00 -3,1 C 86 % 1032,2 hPa 0,0 l/m 0,0 km/h N -5,1 C -3,1 C 0,0 km/h
14.11.2011 04:00 -3,3 C 86 % 1032,2 hPa 0,0 l/m 0,0 km/h N -5,3 C -3,3 C 0,0 km/h
14.11.2011 05:00 -3,6 C 86 % 1032,2 hPa 0,0 l/m 0,0 km/h N -5,6 C -3,6 C 0,0 km/h
14.11.2011 06:00 -3,8 C 86 % 1032,1 hPa 0,0 l/m 0,0 km/h N -5,8 C -3,8 C 0,0 km/h
14.11.2011 07:00 -3,9 C 86 % 1032,1 hPa 0,0 l/m 0,0 km/h N -5,9 C -3,9 C 0,0 km/h
14.11.2011 08:00 -2,3 C 84 % 1031,9 hPa 0,0 l/m 0,0 km/h N -4,7 C -2,3 C 0,0 km/h
14.11.2011 09:00 -0,8 C 83 % 1031,5 hPa 0,0 l/m 0,0 km/h N -3,3 C -0,8 C 1,2 km/h
14.11.2011 10:00 -0,3 C 83 % 1031,3 hPa 0,0 l/m 0,0 km/h N -2,8 C -0,3 C 0,8 km/h
14.11.2011 11:00 0,2 C 83 % 1030,7 hPa 0,0 l/m 0,2 km/h N -2,4 C 0,2 C 2,0 km/h
14.11.2011 12:00 0,1 C 83 % 1029,8 hPa 0,0 l/m 0,1 km/h N -2,4 C 0,1 C 1,6 km/h
14.11.2011 13:00 0,6 C 82 % 1029,1 hPa 0,0 l/m 0,0 km/h N -2,0 C 0,6 C 1,6 km/h
14.11.2011 14:00 1,3 C 82 % 1028,7 hPa 0,0 l/m 0,0 km/h N -1,5 C 1,3 C 0,8 km/h
14.11.2011 15:00 1,3 C 83 % 1028,1 hPa 0,0 l/m 0,1 km/h N -1,3 C 1,3 C 2,0 km/h
14.11.2011 16:00 0,8 C 83 % 1027,8 hPa 0,0 l/m 0,0 km/h N -1,8 C 0,8 C 0,8 km/h
14.11.2011 17:00 0,6 C 83 % 1027,4 hPa 0,0 l/m 0,0 km/h N -2,0 C 0,6 C 0,4 km/h
14.11.2011 18:00 0,1 C 83 % 1027,3 hPa 0,0 l/m 0,1 km/h N -2,4 C 0,1 C 2,4 km/h
14.11.2011 19:00 -0,3 C 83 % 1026,8 hPa 0,0 l/m 0,0 km/h N -2,8 C -0,3 C 1,2 km/h
14.11.2011 20:00 -0,3 C 83 % 1026,6 hPa 0,0 l/m 0,1 km/h N -2,8 C -0,3 C 2,0 km/h
14.11.2011 21:00 -0,9 C 83 % 1026,2 hPa 0,0 l/m 0,0 km/h N -3,4 C -0,9 C 1,2 km/h
14.11.2011 22:00 -1,5 C 83 % 1026,0 hPa 0,0 l/m 0,1 km/h N -3,9 C -1,5 C 2,0 km/h
14.11.2011 23:00 -1,6 C 83 % 1025,7 hPa 0,0 l/m 0,0 km/h N -4,1 C -1,6 C 0,8 km/h
15.11.2011 00:00 -1,9 C 83 % 1025,1 hPa 0,0 l/m 0,0 km/h N -4,4 C -1,9 C 0,4 km/h
15.11.2011 01:00 -2,5 C 83 % 1025,2 hPa 0,0 l/m 0,0 km/h N -5,0 C -2,5 C 0,0 km/h
15.11.2011 02:00 -3,0 C 84 % 1025,1 hPa 0,0 l/m 0,0 km/h N -5,4 C -3,0 C 0,0 km/h
15.11.2011 03:00 -3,5 C 84 % 1024,9 hPa 0,0 l/m 0,0 km/h N -5,8 C -3,5 C 0,0 km/h
15.11.2011 04:00 -4,1 C 84 % 1024,9 hPa 0,0 l/m 0,0 km/h N -6,4 C -4,1 C 0,0 km/h
15.11.2011 05:00 -4,3 C 84 % 1024,8 hPa 0,0 l/m 0,0 km/h N -6,5 C -4,3 C 0,8 km/h
15.11.2011 06:00 -4,3 C 84 % 1024,8 hPa 0,0 l/m 0,0 km/h N -6,6 C -4,3 C 0,0 km/h
15.11.2011 07:00 -4,2 C 84 % 1025,0 hPa 0,0 l/m 0,0 km/h N -6,5 C -4,2 C 0,4 km/h
15.11.2011 08:00 -3,6 C 83 % 1025,5 hPa 0,0 l/m 0,0 km/h N -6,1 C -3,6 C 0,4 km/h
15.11.2011 09:00 -2,2 C 82 % 1025,7 hPa 0,0 l/m 0,0 km/h N -4,8 C -2,2 C 0,8 km/h
15.11.2011 10:00 -0,8 C 82 % 1025,6 hPa 0,0 l/m 0,0 km/h N -3,5 C -0,8 C 1,6 km/h
15.11.2011 11:00 0,5 C 81 % 1024,9 hPa 0,0 l/m 0,1 km/h N -2,4 C 0,5 C 2,0 km/h
15.11.2011 12:00 2,1 C 80 % 1024,2 hPa 0,0 l/m 0,1 km/h N -1,0 C 2,1 C 2,4 km/h
15.11.2011 13:00 3,2 C 81 % 1023,6 hPa 0,0 l/m 0,1 km/h N 0,2 C 3,2 C 2,0 km/h
15.11.2011 14:00 3,8 C 85 % 1023,3 hPa 0,0 l/m 0,2 km/h N 1,5 C 3,8 C 2,4 km/h
15.11.2011 15:00 3,6 C 84 % 1023,5 hPa 0,0 l/m 0,1 km/h N 1,2 C 3,6 C 1,2 km/h
15.11.2011 16:00 1,9 C 83 % 1023,7 hPa 0,0 l/m 0,0 km/h N -0,6 C 1,9 C 0,4 km/h
15.11.2011 17:00 -0,1 C 84 % 1024,1 hPa 0,0 l/m 0,0 km/h N -2,5 C -0,1 C 0,0 km/h
15.11.2011 18:00 -1,5 C 85 % 1024,3 hPa 0,0 l/m 0,0 km/h N -3,8 C -1,5 C 0,0 km/h
15.11.2011 19:00 -2,0 C 86 % 1024,5 hPa 0,0 l/m 0,0 km/h N -4,0 C -2,0 C 0,4 km/h
15.11.2011 20:00 -2,1 C 86 % 1024,7 hPa 0,0 l/m 0,0 km/h N -4,1 C -2,1 C 0,8 km/h
15.11.2011 21:00 -2,5 C 86 % 1024,8 hPa 0,0 l/m 0,0 km/h N -4,5 C -2,5 C 0,0 km/h
15.11.2011 22:00 -2,8 C 85 % 1025,0 hPa 0,0 l/m 0,0 km/h N -4,9 C -2,8 C 0,4 km/h
15.11.2011 23:00 -2,2 C 84 % 1025,1 hPa 0,0 l/m 0,0 km/h N -4,5 C -2,2 C 0,4 km/h
16.11.2011 00:00 -1,2 C 84 % 1025,3 hPa 0,0 l/m 0,1 km/h N -3,6 C -1,2 C 1,2 km/h
16.11.2011 01:00 -1,0 C 84 % 1025,0 hPa 0,0 l/m 0,0 km/h N -3,3 C -1,0 C 0,4 km/h
16.11.2011 02:00 -1,1 C 84 % 1024,9 hPa 0,0 l/m 0,0 km/h N -3,5 C -1,1 C 0,0 km/h
16.11.2011 03:00 -1,0 C 84 % 1025,0 hPa 0,0 l/m 0,1 km/h N -3,5 C -1,0 C 1,6 km/h
16.11.2011 04:00 -1,4 C 84 % 1025,3 hPa 0,0 l/m 0,4 km/h N -3,7 C -1,4 C 2,8 km/h
16.11.2011 05:00 -1,7 C 83 % 1025,5 hPa 0,0 l/m 0,4 km/h N -4,1 C -1,7 C 2,8 km/h
16.11.2011 06:00 -1,6 C 83 % 1025,8 hPa 0,0 l/m 0,1 km/h N -4,1 C -1,6 C 1,6 km/h
16.11.2011 07:00 -1,5 C 83 % 1026,3 hPa 0,0 l/m 0,1 km/h N -4,0 C -1,5 C 1,6 km/h
16.11.2011 08:00 -1,4 C 83 % 1026,8 hPa 0,0 l/m 0,0 km/h N -3,9 C -1,4 C 0,4 km/h
16.11.2011 09:00 -1,3 C 83 % 1027,1 hPa 0,0 l/m 0,1 km/h N -3,8 C -1,3 C 2,0 km/h
16.11.2011 10:00 -0,9 C 82 % 1026,9 hPa 0,0 l/m 0,3 km/h N -3,6 C -0,9 C 2,4 km/h
16.11.2011 11:00 -0,7 C 82 % 1026,5 hPa 0,0 l/m 0,2 km/h N -3,4 C -0,7 C 2,8 km/h
16.11.2011 12:00 -0,6 C 82 % 1026,3 hPa 0,0 l/m 0,2 km/h N -3,3 C -0,6 C 3,2 km/h
16.11.2011 13:00 -0,4 C 82 % 1026,1 hPa 0,0 l/m 0,1 km/h N -3,1 C -0,4 C 2,4 km/h
16.11.2011 14:00 -0,4 C 82 % 1026,1 hPa 0,0 l/m 0,1 km/h N -3,0 C -0,4 C 2,0 km/h
16.11.2011 15:00 -0,2 C 82 % 1026,3 hPa 0,0 l/m 0,2 km/h N -2,9 C -0,2 C 2,8 km/h
16.11.2011 16:00 -0,2 C 82 % 1026,6 hPa 0,0 l/m 0,1 km/h N -2,9 C -0,2 C 2,8 km/h
16.11.2011 17:00 -0,0 C 82 % 1026,7 hPa 0,0 l/m 0,1 km/h N -2,7 C -0,0 C 2,8 km/h
16.11.2011 18:00 0,1 C 82 % 1026,7 hPa 0,0 l/m 0,0 km/h N -2,6 C 0,1 C 2,0 km/h
16.11.2011 19:00 0,2 C 82 % 1026,6 hPa 0,0 l/m 0,2 km/h N -2,5 C 0,2 C 4,0 km/h
16.11.2011 20:00 0,3 C 82 % 1026,3 hPa 0,0 l/m 0,3 km/h N -2,5 C 0,3 C 4,4 km/h
16.11.2011 21:00 0,1 C 82 % 1026,6 hPa 0,0 l/m 0,4 km/h N -2,6 C 0,1 C 4,0 km/h
16.11.2011 22:00 0,1 C 82 % 1026,6 hPa 0,0 l/m 0,2 km/h N -2,6 C 0,1 C 4,0 km/h
16.11.2011 23:00 0,1 C 82 % 1026,4 hPa 0,0 l/m 0,1 km/h N -2,6 C 0,1 C 2,0 km/h
17.11.2011 00:00 -0,1 C 82 % 1026,3 hPa 0,0 l/m 0,6 km/h N -2,7 C -0,1 C 6,4 km/h
17.11.2011 01:00 -0,3 C 82 % 1026,4 hPa 0,0 l/m 0,3 km/h N -2,9 C -0,3 C 3,6 km/h
17.11.2011 02:00 -0,3 C 82 % 1026,7 hPa 0,0 l/m 0,1 km/h N -3,0 C -0,3 C 2,0 km/h
17.11.2011 03:00 -0,5 C 82 % 1026,4 hPa 0,0 l/m 0,0 km/h N -3,1 C -0,5 C 1,2 km/h
17.11.2011 04:00 -0,6 C 82 % 1026,6 hPa 0,0 l/m 0,0 km/h N -3,2 C -0,6 C 1,2 km/h
17.11.2011 05:00 -0,5 C 82 % 1026,7 hPa 0,0 l/m 0,0 km/h N -3,2 C -0,5 C 1,2 km/h
17.11.2011 06:00 -0,3 C 82 % 1026,8 hPa 0,0 l/m 0,3 km/h N -3,0 C -0,3 C 5,6 km/h
17.11.2011 07:00 -0,3 C 82 % 1027,0 hPa 0,0 l/m 0,1 km/h N -3,0 C -0,3 C 3,2 km/h
17.11.2011 08:00 -0,3 C 82 % 1027,4 hPa 0,0 l/m 0,1 km/h N -3,0 C -0,3 C 3,2 km/h
17.11.2011 09:00 -0,2 C 82 % 1027,4 hPa 0,0 l/m 0,3 km/h N -2,9 C -0,2 C 4,4 km/h
17.11.2011 10:00 0,3 C 82 % 1027,5 hPa 0,0 l/m 0,2 km/h N -2,5 C 0,3 C 4,4 km/h
17.11.2011 11:00 0,4 C 83 % 1027,5 hPa 0,0 l/m 0,1 km/h N -2,1 C 0,4 C 2,4 km/h
17.11.2011 12:00 0,7 C 84 % 1027,3 hPa 0,0 l/m 0,3 km/h N -1,8 C 0,7 C 4,4 km/h
17.11.2011 13:00 0,7 C 84 % 1027,1 hPa 0,0 l/m 0,1 km/h N -1,7 C 0,7 C 2,0 km/h
17.11.2011 14:00 0,6 C 85 % 1026,9 hPa 0,0 l/m 0,0 km/h N -1,7 C 0,6 C 1,6 km/h
17.11.2011 15:00 0,3 C 85 % 1027,0 hPa 0,0 l/m 0,0 km/h N -1,9 C 0,3 C 1,6 km/h
17.11.2011 16:00 0,2 C 85 % 1027,0 hPa 0,0 l/m 0,2 km/h N -2,0 C 0,2 C 3,2 km/h
17.11.2011 17:00 -0,1 C 85 % 1027,1 hPa 0,0 l/m 0,1 km/h N -2,3 C -0,1 C 3,2 km/h
17.11.2011 18:00 -0,2 C 85 % 1027,2 hPa 0,0 l/m 0,0 km/h N -2,4 C -0,2 C 1,2 km/h
17.11.2011 19:00 -0,3 C 84 % 1027,1 hPa 0,0 l/m 0,0 km/h N -2,6 C -0,3 C 0,8 km/h
17.11.2011 20:00 -0,4 C 84 % 1027,2 hPa 0,0 l/m 0,0 km/h N -2,7 C -0,4 C 0,8 km/h
17.11.2011 21:00 -0,4 C 84 % 1027,3 hPa 0,0 l/m 0,1 km/h N -2,8 C -0,4 C 2,4 km/h
17.11.2011 22:00 -0,6 C 84 % 1027,3 hPa 0,0 l/m 0,1 km/h N -2,9 C -0,6 C 2,4 km/h
17.11.2011 23:00 -0,7 C 84 % 1027,4 hPa 0,0 l/m 0,0 km/h N -3,1 C -0,7 C 1,6 km/h
18.11.2011 00:00 -0,6 C 83 % 1027,4 hPa 0,0 l/m 0,0 km/h N -3,1 C -0,6 C 2,0 km/h
18.11.2011 01:00 -0,7 C 83 % 1027,4 hPa 0,0 l/m 0,0 km/h N -3,2 C -0,7 C 0,4 km/h
18.11.2011 02:00 -0,9 C 83 % 1027,5 hPa 0,0 l/m 0,0 km/h N -3,4 C -0,9 C 0,8 km/h
18.11.2011 03:00 -0,9 C 83 % 1027,2 hPa 0,0 l/m 0,0 km/h N -3,4 C -0,9 C 0,8 km/h
18.11.2011 04:00 -0,8 C 83 % 1027,3 hPa 0,0 l/m 0,0 km/h N -3,3 C -0,8 C 1,6 km/h
18.11.2011 05:00 -0,8 C 83 % 1027,1 hPa 0,0 l/m 0,3 km/h W-SW -3,3 C -0,8 C 2,4 km/h
18.11.2011 06:00 -1,4 C 83 % 1027,1 hPa 0,0 l/m 0,8 km/h SW -3,9 C -1,4 C 4,0 km/h
18.11.2011 07:00 -1,1 C 83 % 1027,2 hPa 0,0 l/m 0,1 km/h N -3,6 C -1,1 C 2,8 km/h
18.11.2011 08:00 -0,4 C 82 % 1027,3 hPa 0,0 l/m 0,1 km/h N -3,1 C -0,4 C 2,0 km/h
18.11.2011 09:00 -0,2 C 82 % 1027,7 hPa 0,0 l/m 0,0 km/h N -2,9 C -0,2 C 2,0 km/h
18.11.2011 10:00 0,3 C 82 % 1027,8 hPa 0,0 l/m 0,0 km/h N -2,5 C 0,3 C 1,6 km/h
18.11.2011 11:00 1,4 C 81 % 1027,4 hPa 0,0 l/m 0,0 km/h N -1,5 C 1,4 C 1,2 km/h
18.11.2011 12:00 2,8 C 81 % 1027,0 hPa 0,0 l/m 0,2 km/h N -0,2 C 2,8 C 3,2 km/h
18.11.2011 13:00 3,7 C 83 % 1026,4 hPa 0,0 l/m 0,3 km/h N 1,1 C 3,7 C 2,8 km/h
18.11.2011 14:00 4,3 C 85 % 1026,0 hPa 0,0 l/m 0,3 km/h N 2,0 C 4,3 C 3,6 km/h
18.11.2011 15:00 4,2 C 85 % 1025,9 hPa 0,0 l/m 0,1 km/h N 1,9 C 4,2 C 2,0 km/h
18.11.2011 16:00 2,7 C 83 % 1026,0 hPa 0,0 l/m 0,0 km/h N 0,1 C 2,7 C 0,8 km/h
18.11.2011 17:00 0,8 C 83 % 1026,2 hPa 0,0 l/m 0,0 km/h N -1,7 C 0,8 C 0,0 km/h
18.11.2011 18:00 0,8 C 85 % 1026,2 hPa 0,0 l/m 0,0 km/h N -1,4 C 0,8 C 0,0 km/h
18.11.2011 19:00 1,9 C 85 % 1026,1 hPa 0,0 l/m 0,0 km/h N -0,3 C 1,9 C 0,0 km/h
18.11.2011 20:00 2,5 C 84 % 1025,9 hPa 0,0 l/m 0,0 km/h N 0,1 C 2,5 C 0,0 km/h
18.11.2011 21:00 2,8 C 84 % 1026,0 hPa 0,0 l/m 0,0 km/h N 0,3 C 2,8 C 0,4 km/h
18.11.2011 22:00 3,0 C 84 % 1025,7 hPa 0,0 l/m 0,1 km/h N 0,5 C 3,0 C 1,2 km/h
18.11.2011 23:00 3,0 C 84 % 1025,6 hPa 0,0 l/m 0,0 km/h N 0,6 C 3,0 C 0,0 km/h
19.11.2011 00:00 3,1 C 84 % 1025,4 hPa 0,0 l/m 0,0 km/h N 0,6 C 3,1 C 0,0 km/h
19.11.2011 01:00 3,0 C 84 % 1025,4 hPa 0,0 l/m 0,0 km/h N 0,5 C 3,0 C 0,0 km/h
19.11.2011 02:00 2,9 C 84 % 1025,3 hPa 0,0 l/m 0,0 km/h N 0,4 C 2,9 C 0,0 km/h
19.11.2011 03:00 2,8 C 84 % 1025,2 hPa 0,0 l/m 0,0 km/h N 0,4 C 2,8 C 0,0 km/h
19.11.2011 04:00 2,8 C 84 % 1025,2 hPa 0,0 l/m 0,0 km/h N 0,4 C 2,8 C 0,0 km/h
19.11.2011 05:00 2,8 C 84 % 1025,3 hPa 0,0 l/m 0,0 km/h N 0,3 C 2,8 C 0,0 km/h
19.11.2011 06:00 2,6 C 84 % 1025,4 hPa 0,0 l/m 0,0 km/h N 0,2 C 2,6 C 0,4 km/h
19.11.2011 07:00 2,3 C 84 % 1025,9 hPa 0,0 l/m 0,0 km/h N -0,1 C 2,3 C 0,0 km/h
19.11.2011 08:00 2,2 C 84 % 1026,2 hPa 0,0 l/m 0,0 km/h N -0,2 C 2,2 C 0,8 km/h
19.11.2011 09:00 2,3 C 84 % 1026,3 hPa 0,0 l/m 0,0 km/h N -0,1 C 2,3 C 1,2 km/h
19.11.2011 10:00 2,8 C 85 % 1026,6 hPa 0,0 l/m 0,1 km/h N 0,4 C 2,8 C 2,0 km/h
19.11.2011 11:00 3,3 C 85 % 1026,2 hPa 0,0 l/m 0,0 km/h N 1,0 C 3,3 C 1,2 km/h
19.11.2011 12:00 4,2 C 85 % 1025,8 hPa 0,0 l/m 0,2 km/h N 1,9 C 4,2 C 4,4 km/h
19.11.2011 13:00 4,7 C 83 % 1025,5 hPa 0,0 l/m 0,1 km/h N 2,1 C 4,7 C 1,6 km/h
19.11.2011 14:00 4,9 C 81 % 1025,4 hPa 0,0 l/m 0,1 km/h N 1,8 C 4,9 C 2,4 km/h
19.11.2011 15:00 4,6 C 81 % 1025,6 hPa 0,0 l/m 1,4 km/h SO 1,6 C 4,6 C 6,1 km/h
19.11.2011 16:00 4,1 C 82 % 1025,6 hPa 0,0 l/m 0,5 km/h N 1,3 C 4,1 C 4,8 km/h
19.11.2011 17:00 3,7 C 83 % 1025,7 hPa 0,0 l/m 0,1 km/h N 1,1 C 3,7 C 2,8 km/h
19.11.2011 18:00 3,4 C 84 % 1025,8 hPa 0,0 l/m 0,2 km/h N 1,0 C 3,4 C 4,4 km/h
19.11.2011 19:00 3,2 C 85 % 1025,8 hPa 0,0 l/m 0,2 km/h N 0,9 C 3,2 C 5,2 km/h
19.11.2011 20:00 3,0 C 85 % 1026,2 hPa 0,0 l/m 0,4 km/h S-SO 0,8 C 3,0 C 5,2 km/h
19.11.2011 21:00 2,8 C 85 % 1026,6 hPa 0,0 l/m 1,5 km/h S 0,6 C 2,8 C 9,3 km/h
19.11.2011 22:00 2,7 C 85 % 1026,6 hPa 0,0 l/m 2,7 km/h S 0,4 C 2,7 C 10,5 km/h
19.11.2011 23:00 2,5 C 85 % 1026,6 hPa 0,0 l/m 1,4 km/h S-SO 0,3 C 2,5 C 8,9 km/h
20.11.2011 00:00 2,3 C 85 % 1026,6 hPa 0,0 l/m 0,6 km/h S-SO -0,0 C 2,3 C 6,8 km/h
20.11.2011 01:00 2,1 C 84 % 1026,5 hPa 0,0 l/m 2,3 km/h S -0,3 C 2,1 C 10,1 km/h
20.11.2011 02:00 1,9 C 85 % 1026,4 hPa 0,0 l/m 2,1 km/h S -0,4 C 1,9 C 8,9 km/h
20.11.2011 03:00 1,7 C 85 % 1026,3 hPa 0,0 l/m 1,6 km/h S-SO -0,5 C 1,7 C 7,2 km/h
20.11.2011 04:00 1,5 C 85 % 1026,4 hPa 0,0 l/m 0,6 km/h N -0,7 C 1,5 C 6,4 km/h
20.11.2011 05:00 1,3 C 85 % 1026,6 hPa 0,0 l/m 0,7 km/h N -0,9 C 1,3 C 6,0 km/h
20.11.2011 06:00 1,3 C 86 % 1026,5 hPa 0,0 l/m 0,6 km/h S -0,8 C 1,3 C 5,6 km/h
20.11.2011 07:00 1,2 C 86 % 1026,9 hPa 0,0 l/m 0,9 km/h S -1,0 C 1,2 C 7,2 km/h
20.11.2011 08:00 0,9 C 85 % 1027,5 hPa 0,0 l/m 0,2 km/h N -1,3 C 0,9 C 4,0 km/h
20.11.2011 09:00 1,1 C 85 % 1027,7 hPa 0,0 l/m 0,3 km/h N -1,1 C 1,1 C 5,6 km/h
20.11.2011 10:00 1,2 C 85 % 1027,8 hPa 0,0 l/m 0,3 km/h N -1,1 C 1,2 C 4,4 km/h
20.11.2011 11:00 1,3 C 86 % 1027,4 hPa 0,0 l/m 0,4 km/h N -0,8 C 1,3 C 4,8 km/h
20.11.2011 12:00 1,3 C 86 % 1027,3 hPa 0,0 l/m 0,1 km/h N -0,8 C 1,3 C 2,8 km/h
20.11.2011 13:00 1,3 C 86 % 1027,0 hPa 0,0 l/m 0,0 km/h N -0,8 C 1,3 C 1,6 km/h
20.11.2011 14:00 1,3 C 85 % 1026,9 hPa 0,0 l/m 0,0 km/h N -0,9 C 1,3 C 1,2 km/h
20.11.2011 15:00 1,0 C 85 % 1026,9 hPa 0,0 l/m 0,3 km/h N -1,3 C 1,0 C 3,2 km/h
20.11.2011 16:00 0,4 C 85 % 1026,8 hPa 0,0 l/m 0,3 km/h N -1,9 C 0,4 C 3,2 km/h
20.11.2011 17:00 0,1 C 85 % 1027,1 hPa 0,0 l/m 0,1 km/h N -2,1 C 0,1 C 1,6 km/h
20.11.2011 18:00 -0,1 C 86 % 1027,2 hPa 0,0 l/m 0,0 km/h N -2,2 C -0,1 C 1,6 km/h
20.11.2011 19:00 -0,2 C 86 % 1026,9 hPa 0,0 l/m 0,0 km/h N -2,3 C -0,2 C 1,2 km/h
20.11.2011 20:00 -0,2 C 86 % 1027,0 hPa 0,0 l/m 0,1 km/h N -2,3 C -0,2 C 1,6 km/h
20.11.2011 21:00 -0,2 C 86 % 1027,1 hPa 0,0 l/m 0,2 km/h N -2,2 C -0,2 C 2,8 km/h
20.11.2011 22:00 0,0 C 85 % 1026,9 hPa 0,0 l/m 0,1 km/h N -2,2 C 0,0 C 2,8 km/h
20.11.2011 23:00 0,1 C 85 % 1026,7 hPa 0,0 l/m 0,1 km/h N -2,1 C 0,1 C 2,8 km/h
Min-Datum _ 15.11.11 15.11.11 15.11.11 - 14.11.11 - 15.11.11 15.11.11 14.11.11
_ Min-Zeit 06:30 11:45 14:15 - 00:30 - 06:30 06:30 00:30
Minimum _ -4,4 C 80 % 1023,2 hPa - 0,0 km/h - -6,7 C -4,4 C 0,0 km/h
Max-Datum _ 19.11.11 14.11.11 14.11.11 14.11.11 19.11.11 - 18.11.11 19.11.11 19.11.11
_ Max-Zeit 13:45 01:15 00:00 00:00 22:30 - 15:00 14:00 15:30
Maximum _ 4,9 C 92 % 1033,3 hPa 0,0 l/m 3,4 km/h
S
- 2,4 C 4,9 C 11,3 km/h
S-SO
Durchschnitt _ 0,3 C 84 % 1026,7 hPa #0,0 l/m 0,2 km/h S -2,1 C 0,3 C 2,2 km/h